sensor_id;sensor_type;location;lat;lon;timestamp;pressure;altitude;pressure_sealevel;temperature;humidity
63343;BME280;49465;57.664;39.686;2023-05-21T00:00:19;101307.53;;;16.32;60.69
63343;BME280;49465;57.664;39.686;2023-05-21T00:02:51;101296.88;;;16.20;61.21
63343;BME280;49465;57.664;39.686;2023-05-21T00:05:17;101296.88;;;16.20;61.29
63343;BME280;49465;57.664;39.686;2023-05-21T00:07:55;101287.97;;;16.21;60.88
63343;BME280;49465;57.664;39.686;2023-05-21T00:10:24;101300.38;;;16.21;61.25
63343;BME280;49465;57.664;39.686;2023-05-21T00:12:53;101299.50;;;16.20;60.63
63343;BME280;49465;57.664;39.686;2023-05-21T00:15:22;101301.41;;;16.18;60.82
63343;BME280;49465;57.664;39.686;2023-05-21T00:17:51;101303.13;;;16.19;61.09
63343;BME280;49465;57.664;39.686;2023-05-21T00:20:20;101314.44;;;16.21;60.82
63343;BME280;49465;57.664;39.686;2023-05-21T00:22:49;101308.69;;;16.28;61.31
63343;BME280;49465;57.664;39.686;2023-05-21T00:25:18;101307.53;;;16.32;60.91
63343;BME280;49465;57.664;39.686;2023-05-21T00:27:45;101313.59;;;16.21;60.72
63343;BME280;49465;57.664;39.686;2023-05-21T00:30:14;101312.75;;;16.20;60.76
63343;BME280;49465;57.664;39.686;2023-05-21T00:32:41;101305.78;;;16.19;61.17
63343;BME280;49465;57.664;39.686;2023-05-21T00:35:08;101287.72;;;16.00;61.25
63343;BME280;49465;57.664;39.686;2023-05-21T00:37:37;101319.09;;;16.18;61.01
63343;BME280;49465;57.664;39.686;2023-05-21T00:40:04;101320.78;;;16.19;60.70
63343;BME280;49465;57.664;39.686;2023-05-21T00:42:35;101320.22;;;16.27;60.59
63343;BME280;49465;57.664;39.686;2023-05-21T00:45:05;101327.78;;;16.20;60.13
63343;BME280;49465;57.664;39.686;2023-05-21T00:47:46;101328.31;;;16.49;60.04
63343;BME280;49465;57.664;39.686;2023-05-21T00:50:22;101341.72;;;16.35;60.39
63343;BME280;49465;57.664;39.686;2023-05-21T00:53:00;101341.94;;;16.32;60.66
63343;BME280;49465;57.664;39.686;2023-05-21T00:55:27;101334.88;;;16.19;60.33
63343;BME280;49465;57.664;39.686;2023-05-21T00:57:56;101345.66;;;16.29;60.85
63343;BME280;49465;57.664;39.686;2023-05-21T01:00:23;101343.75;;;16.18;60.17
63343;BME280;49465;57.664;39.686;2023-05-21T01:03:00;101337.72;;;16.16;60.22
63343;BME280;49465;57.664;39.686;2023-05-21T01:05:29;101344.78;;;16.29;60.34
63343;BME280;49465;57.664;39.686;2023-05-21T01:08:02;101342.13;;;16.29;60.16
63343;BME280;49465;57.664;39.686;2023-05-21T01:10:29;101340.47;;;16.15;60.23
63343;BME280;49465;57.664;39.686;2023-05-21T01:12:59;101344.81;;;16.16;60.73
63343;BME280;49465;57.664;39.686;2023-05-21T01:15:26;101347.69;;;16.13;60.64
63343;BME280;49465;57.664;39.686;2023-05-21T01:17:53;101340.91;;;16.09;60.88
63343;BME280;49465;57.664;39.686;2023-05-21T01:20:24;101348.09;;;16.19;61.49
63343;BME280;49465;57.664;39.686;2023-05-21T01:22:52;101348.75;;;16.10;60.56
63343;BME280;49465;57.664;39.686;2023-05-21T01:25:26;101341.84;;;16.20;60.90
63343;BME280;49465;57.664;39.686;2023-05-21T01:27:58;101347.91;;;16.10;60.90
63343;BME280;49465;57.664;39.686;2023-05-21T01:30:25;101352.38;;;16.09;60.49
63343;BME280;49465;57.664;39.686;2023-05-21T01:33:24;101350.38;;;16.37;59.63
63343;BME280;49465;57.664;39.686;2023-05-21T01:36:04;101351.47;;;16.21;60.82
63343;BME280;49465;57.664;39.686;2023-05-21T01:38:48;101353.31;;;16.45;60.07
63343;BME280;49465;57.664;39.686;2023-05-21T01:41:18;101344.19;;;16.12;60.84
63343;BME280;49465;57.664;39.686;2023-05-21T01:43:46;101336.50;;;16.09;60.87
63343;BME280;49465;57.664;39.686;2023-05-21T01:46:16;101340.59;;;16.13;61.00
63343;BME280;49465;57.664;39.686;2023-05-21T01:48:43;101336.69;;;16.06;60.73
63343;BME280;49465;57.664;39.686;2023-05-21T01:51:10;101339.53;;;16.03;61.08
63343;BME280;49465;57.664;39.686;2023-05-21T01:53:39;101341.25;;;16.04;61.13
63343;BME280;49465;57.664;39.686;2023-05-21T01:56:06;101341.16;;;16.06;61.18
63343;BME280;49465;57.664;39.686;2023-05-21T01:58:47;101343.03;;;16.16;61.29
63343;BME280;49465;57.664;39.686;2023-05-21T02:01:17;101343.47;;;16.10;60.48
63343;BME280;49465;57.664;39.686;2023-05-21T02:03:45;101338.38;;;16.07;60.70
63343;BME280;49465;57.664;39.686;2023-05-21T02:06:11;101342.00;;;16.06;61.02
63343;BME280;49465;57.664;39.686;2023-05-21T02:08:38;101336.69;;;16.06;61.16
63343;BME280;49465;57.664;39.686;2023-05-21T02:11:09;101342.09;;;16.17;61.01
63343;BME280;49465;57.664;39.686;2023-05-21T02:13:36;101333.09;;;16.07;61.04
63343;BME280;49465;57.664;39.686;2023-05-21T02:16:07;101344.53;;;16.08;61.23
63343;BME280;49465;57.664;39.686;2023-05-21T02:18:37;101335.53;;;16.10;60.89
63343;BME280;49465;57.664;39.686;2023-05-21T02:21:03;101335.72;;;16.07;61.25
63343;BME280;49465;57.664;39.686;2023-05-21T02:23:32;101339.44;;;16.17;61.56
63343;BME280;49465;57.664;39.686;2023-05-21T02:25:59;101337.53;;;16.07;61.09
63343;BME280;49465;57.664;39.686;2023-05-21T02:28:30;101349.16;;;16.17;61.44
63343;BME280;49465;57.664;39.686;2023-05-21T02:31:02;101349.03;;;16.18;61.69
63343;BME280;49465;57.664;39.686;2023-05-21T02:33:29;101342.63;;;16.10;61.42
63343;BME280;49465;57.664;39.686;2023-05-21T02:35:55;101336.50;;;16.09;61.00
63343;BME280;49465;57.664;39.686;2023-05-21T02:38:25;101344.50;;;16.20;61.49
63343;BME280;49465;57.664;39.686;2023-05-21T02:40:54;101341.66;;;16.11;61.23
63343;BME280;49465;57.664;39.686;2023-05-21T02:43:28;101352.31;;;16.22;61.40
63343;BME280;49465;57.664;39.686;2023-05-21T02:46:00;101344.56;;;16.32;61.54
63343;BME280;49465;57.664;39.686;2023-05-21T02:48:26;101344.09;;;16.14;60.40
63343;BME280;49465;57.664;39.686;2023-05-21T02:51:07;101346.69;;;16.27;60.83
63343;BME280;49465;57.664;39.686;2023-05-21T02:53:34;101341.34;;;16.15;60.96
63343;BME280;49465;57.664;39.686;2023-05-21T02:56:04;101343.03;;;16.16;60.68
63343;BME280;49465;57.664;39.686;2023-05-21T02:58:30;101342.09;;;16.17;60.56
63343;BME280;49465;57.664;39.686;2023-05-21T03:00:58;101346.41;;;16.18;60.70
63343;BME280;49465;57.664;39.686;2023-05-21T03:03:31;101341.94;;;16.19;61.02
63343;BME280;49465;57.664;39.686;2023-05-21T03:05:58;101347.13;;;16.20;60.97
63343;BME280;49465;57.664;39.686;2023-05-21T03:08:27;101348.09;;;16.19;60.96
63343;BME280;49465;57.664;39.686;2023-05-21T03:10:57;101344.50;;;16.20;61.54
63343;BME280;49465;57.664;39.686;2023-05-21T03:13:26;101354.41;;;16.30;61.80
63343;BME280;49465;57.664;39.686;2023-05-21T03:15:52;101340.06;;;16.21;61.29
63343;BME280;49465;57.664;39.686;2023-05-21T03:18:22;101345.13;;;16.24;61.58
63343;BME280;49465;57.664;39.686;2023-05-21T03:20:49;101336.44;;;16.22;61.30
63343;BME280;49465;57.664;39.686;2023-05-21T03:23:15;101344.38;;;16.22;61.25
63343;BME280;49465;57.664;39.686;2023-05-21T03:25:45;101344.28;;;16.24;60.93
63343;BME280;49465;57.664;39.686;2023-05-21T03:28:11;101349.56;;;16.24;61.35
63343;BME280;49465;57.664;39.686;2023-05-21T03:30:37;101346.81;;;16.25;61.63
63343;BME280;49465;57.664;39.686;2023-05-21T03:33:04;101346.81;;;16.25;60.75
63343;BME280;49465;57.664;39.686;2023-05-21T03:35:31;101351.25;;;16.25;60.78
63343;BME280;49465;57.664;39.686;2023-05-21T03:37:58;101346.69;;;16.27;61.58
63343;BME280;49465;57.664;39.686;2023-05-21T03:40:35;101354.41;;;16.30;61.56
63343;BME280;49465;57.664;39.686;2023-05-21T03:43:03;101361.63;;;16.28;61.53
63343;BME280;49465;57.664;39.686;2023-05-21T03:45:30;101358.44;;;16.23;61.87
63343;BME280;49465;57.664;39.686;2023-05-21T03:48:02;101361.25;;;16.45;61.90
63343;BME280;49465;57.664;39.686;2023-05-21T03:50:31;101359.72;;;16.30;61.81
63343;BME280;49465;57.664;39.686;2023-05-21T03:52:57;101359.50;;;16.33;61.14
63343;BME280;49465;57.664;39.686;2023-05-21T03:55:26;101365.81;;;16.43;61.89
63343;BME280;49465;57.664;39.686;2023-05-21T03:57:55;101365.81;;;16.43;61.22
63343;BME280;49465;57.664;39.686;2023-05-21T04:00:22;101362.88;;;16.35;61.52
63343;BME280;49465;57.664;39.686;2023-05-21T04:02:48;101362.88;;;16.35;61.73
63343;BME280;49465;57.664;39.686;2023-05-21T04:05:15;101358.44;;;16.35;61.29
63343;BME280;49465;57.664;39.686;2023-05-21T04:07:44;101360.09;;;16.36;61.92
63343;BME280;49465;57.664;39.686;2023-05-21T04:10:20;101364.72;;;16.58;60.88
63343;BME280;49465;57.664;39.686;2023-05-21T04:12:49;101360.63;;;16.41;61.33
63343;BME280;49465;57.664;39.686;2023-05-21T04:15:20;101367.69;;;16.54;60.61
63343;BME280;49465;57.664;39.686;2023-05-21T04:17:49;101369.69;;;16.50;61.73
63343;BME280;49465;57.664;39.686;2023-05-21T04:20:15;101362.22;;;16.44;61.21
63343;BME280;49465;57.664;39.686;2023-05-21T04:22:47;101367.69;;;16.54;61.43
63343;BME280;49465;57.664;39.686;2023-05-21T04:25:16;101368.22;;;16.46;61.58
63343;BME280;49465;57.664;39.686;2023-05-21T04:27:51;101365.47;;;16.48;61.75
63343;BME280;49465;57.664;39.686;2023-05-21T04:30:19;101363.47;;;16.51;61.56
63343;BME280;49465;57.664;39.686;2023-05-21T04:32:47;101366.00;;;16.53;61.29
63343;BME280;49465;57.664;39.686;2023-05-21T04:35:13;101366.84;;;16.53;61.62
63343;BME280;49465;57.664;39.686;2023-05-21T04:37:40;101362.38;;;16.54;61.26
63343;BME280;49465;57.664;39.686;2023-05-21T04:40:14;101365.56;;;16.59;61.38
63343;BME280;49465;57.664;39.686;2023-05-21T04:42:46;101361.53;;;16.77;60.73
63343;BME280;49465;57.664;39.686;2023-05-21T04:45:13;101358.97;;;16.65;61.28
63343;BME280;49465;57.664;39.686;2023-05-21T04:47:49;101359.81;;;16.89;60.46
63343;BME280;49465;57.664;39.686;2023-05-21T04:50:24;101355.34;;;16.66;60.91
63343;BME280;49465;57.664;39.686;2023-05-21T04:52:56;101356.38;;;16.76;61.01
63343;BME280;49465;57.664;39.686;2023-05-21T04:55:26;101357.75;;;16.82;60.95
63343;BME280;49465;57.664;39.686;2023-05-21T04:57:59;101349.69;;;16.83;60.68
63343;BME280;49465;57.664;39.686;2023-05-21T05:00:25;101361.69;;;16.76;61.06
63343;BME280;49465;57.664;39.686;2023-05-21T05:02:54;101357.13;;;16.78;60.99
63343;BME280;49465;57.664;39.686;2023-05-21T05:05:21;101364.81;;;16.81;60.32
63343;BME280;49465;57.664;39.686;2023-05-21T05:07:51;101360.81;;;16.88;60.73
63343;BME280;49465;57.664;39.686;2023-05-21T05:10:17;101356.81;;;16.83;60.48
63343;BME280;49465;57.664;39.686;2023-05-21T05:12:44;101356.81;;;16.83;61.05
63343;BME280;49465;57.664;39.686;2023-05-21T05:15:13;101362.03;;;16.95;60.27
63343;BME280;49465;57.664;39.686;2023-05-21T05:17:45;101360.34;;;16.94;60.31
63343;BME280;49465;57.664;39.686;2023-05-21T05:20:13;101356.69;;;16.84;60.48
63343;BME280;49465;57.664;39.686;2023-05-21T05:22:39;101358.38;;;16.85;60.46
63343;BME280;49465;57.664;39.686;2023-05-21T05:25:06;101361.88;;;16.86;60.25
63343;BME280;49465;57.664;39.686;2023-05-21T05:27:41;101360.44;;;16.93;60.51
63343;BME280;49465;57.664;39.686;2023-05-21T05:30:10;101361.88;;;16.86;60.79
63343;BME280;49465;57.664;39.686;2023-05-21T05:32:42;101363.50;;;16.99;60.48
63343;BME280;49465;57.664;39.686;2023-05-21T05:35:14;101352.91;;;16.99;60.78
63343;BME280;49465;57.664;39.686;2023-05-21T05:37:43;101358.06;;;17.01;60.82
63343;BME280;49465;57.664;39.686;2023-05-21T05:40:15;101350.94;;;16.90;60.36
63343;BME280;49465;57.664;39.686;2023-05-21T05:42:45;101359.66;;;17.04;60.55
63343;BME280;49465;57.664;39.686;2023-05-21T05:45:17;101360.97;;;16.98;60.16
63343;BME280;49465;57.664;39.686;2023-05-21T05:47:46;101361.91;;;16.97;59.88
63343;BME280;49465;57.664;39.686;2023-05-21T05:50:37;101374.69;;;17.38;59.18
63343;BME280;49465;57.664;39.686;2023-05-21T05:53:04;101364.25;;;17.02;60.51
63343;BME280;49465;57.664;39.686;2023-05-21T05:55:32;101369.41;;;17.03;60.43
63343;BME280;49465;57.664;39.686;2023-05-21T05:58:04;101376.44;;;17.15;60.88
63343;BME280;49465;57.664;39.686;2023-05-21T06:00:39;101375.38;;;17.18;60.09
63343;BME280;49465;57.664;39.686;2023-05-21T06:03:09;101373.28;;;17.10;60.13
63343;BME280;49465;57.664;39.686;2023-05-21T06:05:39;101374.41;;;17.19;60.62
63343;BME280;49465;57.664;39.686;2023-05-21T06:08:09;101365.97;;;17.14;60.11
63343;BME280;49465;57.664;39.686;2023-05-21T06:10:41;101370.31;;;17.26;60.24
63343;BME280;49465;57.664;39.686;2023-05-21T06:13:10;101363.94;;;17.17;59.82
63343;BME280;49465;57.664;39.686;2023-05-21T06:15:37;101360.66;;;17.14;59.94
63343;BME280;49465;57.664;39.686;2023-05-21T06:18:04;101361.28;;;17.17;59.84
63343;BME280;49465;57.664;39.686;2023-05-21T06:20:30;101364.66;;;17.19;59.83
63343;BME280;49465;57.664;39.686;2023-05-21T06:23:00;101365.50;;;17.20;60.29
63343;BME280;49465;57.664;39.686;2023-05-21T06:25:26;101357.44;;;17.22;60.42
63343;BME280;49465;57.664;39.686;2023-05-21T06:27:53;101358.16;;;17.24;60.20
63343;BME280;49465;57.664;39.686;2023-05-21T06:30:19;101360.72;;;17.25;60.51
63343;BME280;49465;57.664;39.686;2023-05-21T06:32:48;101351.06;;;17.24;60.04
63343;BME280;49465;57.664;39.686;2023-05-21T06:35:16;101355.25;;;17.27;60.14
63343;BME280;49465;57.664;39.686;2023-05-21T06:37:45;101358.63;;;17.29;59.94
63343;BME280;49465;57.664;39.686;2023-05-21T06:40:19;101353.47;;;17.38;60.36
63343;BME280;49465;57.664;39.686;2023-05-21T06:42:46;101349.38;;;17.34;59.62
63343;BME280;49465;57.664;39.686;2023-05-21T06:45:18;101343.63;;;17.52;59.30
63343;BME280;49465;57.664;39.686;2023-05-21T06:47:48;101338.66;;;17.36;59.97
63343;BME280;49465;57.664;39.686;2023-05-21T06:50:17;101353.50;;;17.50;60.28
63343;BME280;49465;57.664;39.686;2023-05-21T06:52:46;101352.31;;;17.54;60.17
63343;BME280;49465;57.664;39.686;2023-05-21T06:55:15;101357.28;;;17.58;59.66
63343;BME280;49465;57.664;39.686;2023-05-21T06:57:44;101357.00;;;17.50;59.50
63343;BME280;49465;57.664;39.686;2023-05-21T07:00:14;101352.19;;;17.55;58.98
63343;BME280;49465;57.664;39.686;2023-05-21T07:02:43;101352.69;;;17.61;59.06
63343;BME280;49465;57.664;39.686;2023-05-21T07:05:15;101344.63;;;17.73;59.58
63343;BME280;49465;57.664;39.686;2023-05-21T07:07:44;101342.56;;;17.66;59.12
63343;BME280;49465;57.664;39.686;2023-05-21T07:10:11;101357.41;;;17.68;59.00
63343;BME280;49465;57.664;39.686;2023-05-21T07:12:37;101359.19;;;17.68;59.39
63343;BME280;49465;57.664;39.686;2023-05-21T07:15:06;101353.66;;;17.71;59.16
63343;BME280;49465;57.664;39.686;2023-05-21T07:17:35;101345.59;;;17.72;59.13
63343;BME280;49465;57.664;39.686;2023-05-21T07:20:02;101352.56;;;17.73;59.23
63343;BME280;49465;57.664;39.686;2023-05-21T07:22:33;101348.59;;;17.79;58.91
63343;BME280;49465;57.664;39.686;2023-05-21T07:25:00;101348.50;;;17.81;58.80
63343;BME280;49465;57.664;39.686;2023-05-21T07:27:37;101357.44;;;17.91;58.71
63343;BME280;49465;57.664;39.686;2023-05-21T07:30:04;101350.16;;;17.82;59.01
63343;BME280;49465;57.664;39.686;2023-05-21T07:32:31;101354.44;;;17.84;59.43
63343;BME280;49465;57.664;39.686;2023-05-21T07:35:02;101366.00;;;17.94;58.92
63343;BME280;49465;57.664;39.686;2023-05-21T07:37:28;101352.13;;;17.91;58.32
63343;BME280;49465;57.664;39.686;2023-05-21T07:40:01;101359.50;;;18.10;58.13
63343;BME280;49465;57.664;39.686;2023-05-21T07:42:29;101363.00;;;17.99;58.44
63343;BME280;49465;57.664;39.686;2023-05-21T07:44:58;101367.34;;;18.00;59.00
63343;BME280;49465;57.664;39.686;2023-05-21T07:47:25;101362.50;;;18.05;59.05
63343;BME280;49465;57.664;39.686;2023-05-21T07:49:52;101364.81;;;18.10;58.69
63343;BME280;49465;57.664;39.686;2023-05-21T07:52:18;101364.31;;;18.16;58.70
63343;BME280;49465;57.664;39.686;2023-05-21T07:54:47;101363.94;;;18.21;58.10
63343;BME280;49465;57.664;39.686;2023-05-21T07:57:17;101375.16;;;18.35;58.32
63343;BME280;49465;57.664;39.686;2023-05-21T07:59:44;101367.81;;;18.28;57.76
63343;BME280;49465;57.664;39.686;2023-05-21T08:02:16;101371.19;;;18.30;58.32
63343;BME280;49465;57.664;39.686;2023-05-21T08:04:45;101365.63;;;18.33;58.02
63343;BME280;49465;57.664;39.686;2023-05-21T08:07:20;101369.84;;;18.35;57.71
63343;BME280;49465;57.664;39.686;2023-05-21T08:09:47;101370.69;;;18.36;57.62
63343;BME280;49465;57.664;39.686;2023-05-21T08:12:16;101369.00;;;18.35;57.15
63343;BME280;49465;57.664;39.686;2023-05-21T08:14:45;101377.69;;;18.37;57.24
63343;BME280;49465;57.664;39.686;2023-05-21T08:17:14;101380.56;;;18.45;57.57
63343;BME280;49465;57.664;39.686;2023-05-21T08:19:46;101384.06;;;18.46;57.55
63343;BME280;49465;57.664;39.686;2023-05-21T08:22:22;101384.75;;;18.59;56.57
63343;BME280;49465;57.664;39.686;2023-05-21T08:24:54;101386.38;;;18.50;57.49
63343;BME280;49465;57.664;39.686;2023-05-21T08:27:21;101374.66;;;18.30;57.40
63343;BME280;49465;57.664;39.686;2023-05-21T08:29:52;101356.22;;;18.29;57.41
63343;BME280;49465;57.664;39.686;2023-05-21T08:32:21;101361.78;;;18.26;57.62
63343;BME280;49465;57.664;39.686;2023-05-21T08:34:56;101367.19;;;18.35;58.08
63343;BME280;49465;57.664;39.686;2023-05-21T08:37:29;101368.03;;;18.36;58.26
63343;BME280;49465;57.664;39.686;2023-05-21T08:39:55;101357.69;;;18.22;58.12
63343;BME280;49465;57.664;39.686;2023-05-21T08:45:00;101362.00;;;18.34;57.75
63343;BME280;49465;57.664;39.686;2023-05-21T08:47:34;101363.69;;;18.35;57.66
63343;BME280;49465;57.664;39.686;2023-05-21T08:50:06;101367.09;;;18.26;58.55
63343;BME280;49465;57.664;39.686;2023-05-21T08:52:37;101365.38;;;18.25;58.33
63343;BME280;49465;57.664;39.686;2023-05-21T08:55:04;101364.53;;;18.13;58.60
63343;BME280;49465;57.664;39.686;2023-05-21T08:57:33;101359.22;;;18.24;58.48
63343;BME280;49465;57.664;39.686;2023-05-21T09:00:01;101356.34;;;18.16;59.03
63343;BME280;49465;57.664;39.686;2023-05-21T09:02:33;101345.63;;;18.29;58.48
63343;BME280;49465;57.664;39.686;2023-05-21T09:05:09;101337.28;;;18.22;58.55
63343;BME280;49465;57.664;39.686;2023-05-21T09:08:04;101335.13;;;18.60;57.39
63343;BME280;49465;57.664;39.686;2023-05-21T09:10:37;101344.34;;;18.44;59.17
63343;BME280;49465;57.664;39.686;2023-05-21T09:13:07;101340.88;;;18.32;58.85
63343;BME280;49465;57.664;39.686;2023-05-21T09:15:40;101329.31;;;18.33;59.23
63343;BME280;49465;57.664;39.686;2023-05-21T09:18:12;101343.13;;;18.48;59.67
63343;BME280;49465;57.664;39.686;2023-05-21T09:20:47;101343.63;;;18.53;58.62
63343;BME280;49465;57.664;39.686;2023-05-21T09:23:30;101335.75;;;18.52;58.31
63343;BME280;49465;57.664;39.686;2023-05-21T09:26:09;101334.63;;;18.66;58.31
63343;BME280;49465;57.664;39.686;2023-05-21T09:28:40;101339.56;;;18.82;58.95
63343;BME280;49465;57.664;39.686;2023-05-21T09:31:09;101340.94;;;18.97;58.01
63343;BME280;49465;57.664;39.686;2023-05-21T09:33:36;101338.94;;;19.10;57.90
63343;BME280;49465;57.664;39.686;2023-05-21T09:36:16;101340.97;;;19.39;57.35
63343;BME280;49465;57.664;39.686;2023-05-21T09:38:46;101335.19;;;19.34;57.17
63343;BME280;49465;57.664;39.686;2023-05-21T09:41:19;101332.53;;;19.55;56.94
63343;BME280;49465;57.664;39.686;2023-05-21T09:44:01;101339.31;;;19.69;57.07
63343;BME280;49465;57.664;39.686;2023-05-21T09:46:41;101341.69;;;19.93;56.07
63343;BME280;49465;57.664;39.686;2023-05-21T09:49:31;101330.13;;;20.13;56.19
63343;BME280;49465;57.664;39.686;2023-05-21T09:52:09;101330.97;;;20.14;56.25
63343;BME280;49465;57.664;39.686;2023-05-21T09:54:44;101336.22;;;20.35;55.25
63343;BME280;49465;57.664;39.686;2023-05-21T09:57:13;101333.97;;;20.40;55.51
63343;BME280;49465;57.664;39.686;2023-05-21T09:59:49;101343.84;;;20.69;54.15
63343;BME280;49465;57.664;39.686;2023-05-21T10:02:24;101359.72;;;20.80;53.99
63343;BME280;49465;57.664;39.686;2023-05-21T10:04:55;101366.31;;;20.76;53.93
63343;BME280;49465;57.664;39.686;2023-05-21T10:07:34;101354.66;;;20.87;53.44
63343;BME280;49465;57.664;39.686;2023-05-21T10:10:11;101352.28;;;20.84;53.91
63343;BME280;49465;57.664;39.686;2023-05-21T10:12:45;101355.66;;;20.86;53.29
63343;BME280;49465;57.664;39.686;2023-05-21T10:15:26;101342.34;;;20.86;53.12
63343;BME280;49465;57.664;39.686;2023-05-21T10:18:03;101337.13;;;20.94;53.28
63343;BME280;49465;57.664;39.686;2023-05-21T10:20:30;101344.81;;;20.78;53.59
63343;BME280;49465;57.664;39.686;2023-05-21T10:23:02;101341.47;;;20.85;53.40
63343;BME280;49465;57.664;39.686;2023-05-21T10:25:32;101326.19;;;20.87;53.72
63343;BME280;49465;57.664;39.686;2023-05-21T10:28:00;101319.88;;;20.79;54.19
63343;BME280;49465;57.664;39.686;2023-05-21T10:30:26;101313.84;;;20.86;54.49
63343;BME280;49465;57.664;39.686;2023-05-21T10:33:05;101304.44;;;21.11;54.53
63343;BME280;49465;57.664;39.686;2023-05-21T10:35:46;101295.50;;;21.40;53.75
63343;BME280;49465;57.664;39.686;2023-05-21T10:38:18;101296.19;;;21.52;54.78
63343;BME280;49465;57.664;39.686;2023-05-21T10:40:57;101294.03;;;21.65;53.04
63343;BME280;49465;57.664;39.686;2023-05-21T10:43:43;101293.31;;;22.01;52.36
63343;BME280;49465;57.664;39.686;2023-05-21T10:54:40;101278.94;;;22.83;51.07
63343;BME280;49465;57.664;39.686;2023-05-21T11:00:04;101270.63;;;23.04;50.39
63343;BME280;49465;57.664;39.686;2023-05-21T11:02:44;101268.81;;;23.39;50.28
63343;BME280;49465;57.664;39.686;2023-05-21T11:08:05;101258.94;;;23.66;48.76
63343;BME280;49465;57.664;39.686;2023-05-21T11:10:52;101260.59;;;24.01;47.58
63343;BME280;49465;57.664;39.686;2023-05-21T11:13:19;101254.50;;;24.75;47.54
63343;BME280;49465;57.664;39.686;2023-05-21T11:16:03;101253.09;;;24.46;47.82
63343;BME280;49465;57.664;39.686;2023-05-21T11:21:27;101254.00;;;24.63;48.13
63343;BME280;49465;57.664;39.686;2023-05-21T11:24:04;101253.81;;;24.97;47.68
63343;BME280;49465;57.664;39.686;2023-05-21T11:32:11;101262.00;;;25.29;45.26
63343;BME280;49465;57.664;39.686;2023-05-21T11:34:47;101265.31;;;25.39;46.30
63343;BME280;49465;57.664;39.686;2023-05-21T11:40:37;101242.81;;;25.79;45.68
63343;BME280;49465;57.664;39.686;2023-05-21T11:43:18;101224.97;;;25.55;45.32
63343;BME280;49465;57.664;39.686;2023-05-21T11:45:48;101222.78;;;25.59;44.73
63343;BME280;49465;57.664;39.686;2023-05-21T11:48:25;101233.94;;;25.79;44.68
63343;BME280;49465;57.664;39.686;2023-05-21T11:50:57;101236.00;;;25.69;43.40
63343;BME280;49465;57.664;39.686;2023-05-21T11:53:32;101235.63;;;25.80;44.25
63343;BME280;49465;57.664;39.686;2023-05-21T11:56:01;101247.72;;;25.68;43.67
63343;BME280;49465;57.664;39.686;2023-05-21T11:58:31;101246.63;;;25.62;43.76
63343;BME280;49465;57.664;39.686;2023-05-21T12:01:03;101244.97;;;25.53;44.09
63343;BME280;49465;57.664;39.686;2023-05-21T12:03:34;101246.50;;;25.47;44.68
63343;BME280;49465;57.664;39.686;2023-05-21T12:06:07;101275.59;;;25.27;45.72
63343;BME280;49465;57.664;39.686;2023-05-21T12:08:48;101293.88;;;24.91;46.47
63343;BME280;49465;57.664;39.686;2023-05-21T12:11:18;101318.09;;;24.48;45.35
63343;BME280;49465;57.664;39.686;2023-05-21T12:13:46;101319.88;;;24.15;43.90
63343;BME280;49465;57.664;39.686;2023-05-21T12:16:18;101321.03;;;24.04;45.03
63343;BME280;49465;57.664;39.686;2023-05-21T12:18:47;101300.09;;;23.73;45.01
63343;BME280;49465;57.664;39.686;2023-05-21T12:21:13;101276.78;;;23.57;45.58
63343;BME280;49465;57.664;39.686;2023-05-21T12:23:43;101274.09;;;23.57;45.44
63343;BME280;49465;57.664;39.686;2023-05-21T12:26:09;101267.94;;;23.30;45.57
63343;BME280;49465;57.664;39.686;2023-05-21T12:28:36;101262.00;;;23.19;46.51
63343;BME280;49465;57.664;39.686;2023-05-21T12:31:14;101254.53;;;23.30;47.02
63343;BME280;49465;57.664;39.686;2023-05-21T12:33:46;101264.22;;;23.92;45.45
63343;BME280;49465;57.664;39.686;2023-05-21T12:36:42;101261.34;;;23.51;46.29
63343;BME280;49465;57.664;39.686;2023-05-21T12:39:13;101258.63;;;22.90;48.11
63343;BME280;49465;57.664;39.686;2023-05-21T12:41:43;101256.88;;;22.81;48.30
63343;BME280;49465;57.664;39.686;2023-05-21T12:44:12;101256.78;;;22.91;50.60
63343;BME280;49465;57.664;39.686;2023-05-21T12:46:38;101257.63;;;22.92;50.57
63343;BME280;49465;57.664;39.686;2023-05-21T12:49:33;101257.19;;;23.48;49.06
63343;BME280;49465;57.664;39.686;2023-05-21T12:52:03;101254.66;;;23.47;49.17
63343;BME280;49465;57.664;39.686;2023-05-21T12:54:34;101261.53;;;23.84;48.41
63343;BME280;49465;57.664;39.686;2023-05-21T13:00:12;101246.22;;;24.19;47.92
63343;BME280;49465;57.664;39.686;2023-05-21T13:02:45;101246.41;;;24.42;47.41
63343;BME280;49465;57.664;39.686;2023-05-21T13:05:21;101252.31;;;24.54;47.62
63343;BME280;49465;57.664;39.686;2023-05-21T13:07:50;101254.16;;;24.61;48.49
63343;BME280;49465;57.664;39.686;2023-05-21T13:10:17;101253.47;;;24.67;48.05
63343;BME280;49465;57.664;39.686;2023-05-21T13:12:49;101241.06;;;24.83;47.12
63343;BME280;49465;57.664;39.686;2023-05-21T13:15:18;101253.44;;;25.00;46.75
63343;BME280;49465;57.664;39.686;2023-05-21T13:17:46;101260.97;;;25.21;46.87
63343;BME280;49465;57.664;39.686;2023-05-21T13:20:24;101268.28;;;25.52;46.04
63343;BME280;49465;57.664;39.686;2023-05-21T13:22:56;101266.06;;;25.64;45.92
63343;BME280;49465;57.664;39.686;2023-05-21T13:25:28;101267.59;;;25.98;46.28
63343;BME280;49465;57.664;39.686;2023-05-21T13:28:02;101268.66;;;26.20;46.02
63343;BME280;49465;57.664;39.686;2023-05-21T13:30:37;101268.97;;;26.25;44.92